Estación Meteorológica Peña el Pijo (Robertgarden) [ 12/17/17 01:39:29 CET ]

Fecha Hora Presion(HPa) Temp (°C) Humedad % Rocio (°C) Viento ( m/s) Direccion Lluvia 1Hora(mm) Lluvia 24H(mm) LLuvia Total(mm)
2017-Dec-15 01:01:53 1005.400 9.2 74 4.8 0.8 WNW     16.57
2017-Dec-15 02:01:42 1004.900 9.3 75 5.0         16.57
2017-Dec-15 03:10:07 1004.500 9.1 75 4.8         16.57
2017-Dec-15 04:07:03 1004.000 8.9 76 4.8         16.57
2017-Dec-15 05:02:11 1003.900 8.9 77 5.0         16.57
2017-Dec-15 06:01:50 1003.000 8.9 78 5.2         16.57
2017-Dec-15 07:01:51 1003.200 8.8 79 5.3 1.5 WNW     16.57
2017-Dec-15 08:01:53 1003.100 8.8 77 4.9         16.57
2017-Dec-15 09:02:16 1003.300 8.5 77 4.7         16.57
2017-Dec-15 10:01:42 1003.100 9.2 73 4.6 3.3 WNW     16.57
2017-Dec-15 11:01:58 1003.400 9.8 71 4.8 0.6 NNW     16.57
2017-Dec-15 12:01:49 1002.800 9.8 71 4.8 3.3 NW     16.57
2017-Dec-15 13:01:56 1002.500 9.9 74 5.5 2.4 WNW     16.57
2017-Dec-15 14:01:45 1001.100 12.3 67 6.3 4.0 WNW     16.57
2017-Dec-15 15:01:50 1000.300 12.1 67 6.1         16.57
2017-Dec-15 16:01:50 999.800 10.8 75 6.5         16.57
2017-Dec-15 17:01:44 1000.000 9.9 79 6.4         16.57
2017-Dec-15 18:01:34 999.800 9.6 80 6.3         16.57
2017-Dec-15 19:01:39 999.900 9.6 81 6.5     0.51 0.51 17.09
2017-Dec-15 20:01:58 1000.600 9.4 82 6.4     1.55 2.07 18.64
2017-Dec-15 21:01:54 1001.200 8.6 82 5.7     1.03 3.10 19.68
2017-Dec-15 22:01:58 1001.900 6.2 85 3.8     1.55 4.66 21.23
2017-Dec-15 23:01:51 1002.300 5.9 86 3.7       4.66 21.23

Temperatura Máxima:12°    Temperatura Mínima:
Presión Máxima:1005.400 Hpa    Presión Mínima:999.800 Hpa


Volver